sensor_id;sensor_type;location;lat;lon;timestamp;P1;durP1;ratioP1;P2;durP2;ratioP2
18857;SDS011;9558;50.178;8.370;2023-04-20T00:00:28;1.95;;;1.20;;
18857;SDS011;9558;50.178;8.370;2023-04-20T00:03:15;2.70;;;0.70;;
18857;SDS011;9558;50.178;8.370;2023-04-20T00:06:05;4.00;;;0.88;;
18857;SDS011;9558;50.178;8.370;2023-04-20T00:08:53;1.50;;;0.80;;
18857;SDS011;9558;50.178;8.370;2023-04-20T00:14:27;1.70;;;0.77;;
18857;SDS011;9558;50.178;8.370;2023-04-20T00:20:01;4.10;;;0.90;;
18857;SDS011;9558;50.178;8.370;2023-04-20T00:22:49;2.00;;;1.13;;
18857;SDS011;9558;50.178;8.370;2023-04-20T00:25:36;1.30;;;0.70;;
18857;SDS011;9558;50.178;8.370;2023-04-20T00:28:23;1.88;;;0.80;;
18857;SDS011;9558;50.178;8.370;2023-04-20T00:31:09;0.73;;;0.73;;
18857;SDS011;9558;50.178;8.370;2023-04-20T00:36:44;1.60;;;0.77;;
18857;SDS011;9558;50.178;8.370;2023-04-20T00:39:31;1.23;;;0.82;;
18857;SDS011;9558;50.178;8.370;2023-04-20T00:42:18;4.53;;;0.80;;
18857;SDS011;9558;50.178;8.370;2023-04-20T00:45:05;2.53;;;0.85;;
18857;SDS011;9558;50.178;8.370;2023-04-20T00:47:52;0.55;;;0.55;;
18857;SDS011;9558;50.178;8.370;2023-04-20T00:50:40;0.70;;;0.65;;
18857;SDS011;9558;50.178;8.370;2023-04-20T00:53:27;1.90;;;0.82;;
18857;SDS011;9558;50.178;8.370;2023-04-20T00:56:14;2.58;;;1.05;;
18857;SDS011;9558;50.178;8.370;2023-04-20T00:59:01;1.23;;;0.90;;
18857;SDS011;9558;50.178;8.370;2023-04-20T01:01:48;1.05;;;0.55;;
18857;SDS011;9558;50.178;8.370;2023-04-20T01:04:35;0.93;;;0.60;;
18857;SDS011;9558;50.178;8.370;2023-04-20T01:07:23;2.63;;;1.60;;
18857;SDS011;9558;50.178;8.370;2023-04-20T01:10:10;2.65;;;1.38;;
18857;SDS011;9558;50.178;8.370;2023-04-20T01:12:56;1.77;;;1.38;;
18857;SDS011;9558;50.178;8.370;2023-04-20T01:18:38;3.25;;;1.55;;
18857;SDS011;9558;50.178;8.370;2023-04-20T01:21:28;0.57;;;0.57;;
18857;SDS011;9558;50.178;8.370;2023-04-20T01:24:16;2.13;;;1.00;;
18857;SDS011;9558;50.178;8.370;2023-04-20T01:27:03;1.33;;;0.93;;
18857;SDS011;9558;50.178;8.370;2023-04-20T01:29:50;0.50;;;0.50;;
18857;SDS011;9558;50.178;8.370;2023-04-20T01:32:37;3.60;;;1.00;;
18857;SDS011;9558;50.178;8.370;2023-04-20T01:35:24;2.72;;;1.17;;
18857;SDS011;9558;50.178;8.370;2023-04-20T01:41:05;2.80;;;1.27;;
18857;SDS011;9558;50.178;8.370;2023-04-20T01:43:53;3.30;;;1.30;;
18857;SDS011;9558;50.178;8.370;2023-04-20T01:46:40;0.85;;;0.60;;
18857;SDS011;9558;50.178;8.370;2023-04-20T01:52:13;8.13;;;1.02;;
18857;SDS011;9558;50.178;8.370;2023-04-20T01:55:00;1.67;;;0.90;;
18857;SDS011;9558;50.178;8.370;2023-04-20T01:57:48;2.30;;;0.88;;
18857;SDS011;9558;50.178;8.370;2023-04-20T02:00:35;1.02;;;0.98;;
18857;SDS011;9558;50.178;8.370;2023-04-20T02:03:22;1.08;;;0.60;;
18857;SDS011;9558;50.178;8.370;2023-04-20T02:08:58;1.13;;;0.75;;
18857;SDS011;9558;50.178;8.370;2023-04-20T02:11:45;3.83;;;1.23;;
18857;SDS011;9558;50.178;8.370;2023-04-20T02:14:33;3.47;;;0.90;;
18857;SDS011;9558;50.178;8.370;2023-04-20T02:17:20;1.60;;;1.00;;
18857;SDS011;9558;50.178;8.370;2023-04-20T02:22:54;2.20;;;0.80;;
18857;SDS011;9558;50.178;8.370;2023-04-20T02:28:28;1.75;;;1.13;;
18857;SDS011;9558;50.178;8.370;2023-04-20T02:31:16;1.10;;;1.00;;
18857;SDS011;9558;50.178;8.370;2023-04-20T02:34:03;1.30;;;0.90;;
18857;SDS011;9558;50.178;8.370;2023-04-20T02:36:50;1.05;;;0.68;;
18857;SDS011;9558;50.178;8.370;2023-04-20T02:39:37;2.65;;;1.33;;
18857;SDS011;9558;50.178;8.370;2023-04-20T02:42:23;1.90;;;1.15;;
18857;SDS011;9558;50.178;8.370;2023-04-20T02:45:10;1.30;;;0.68;;
18857;SDS011;9558;50.178;8.370;2023-04-20T02:47:58;2.53;;;1.23;;
18857;SDS011;9558;50.178;8.370;2023-04-20T02:50:45;2.08;;;0.95;;
18857;SDS011;9558;50.178;8.370;2023-04-20T02:53:32;0.90;;;0.73;;
18857;SDS011;9558;50.178;8.370;2023-04-20T02:56:18;6.38;;;1.02;;
18857;SDS011;9558;50.178;8.370;2023-04-20T02:59:06;4.93;;;0.90;;
18857;SDS011;9558;50.178;8.370;2023-04-20T03:01:52;3.22;;;0.93;;
18857;SDS011;9558;50.178;8.370;2023-04-20T03:04:40;1.67;;;1.05;;
18857;SDS011;9558;50.178;8.370;2023-04-20T03:07:27;4.80;;;1.35;;
18857;SDS011;9558;50.178;8.370;2023-04-20T03:10:14;5.30;;;1.80;;
18857;SDS011;9558;50.178;8.370;2023-04-20T03:13:01;3.20;;;1.20;;
18857;SDS011;9558;50.178;8.370;2023-04-20T03:15:47;3.17;;;1.75;;
18857;SDS011;9558;50.178;8.370;2023-04-20T03:18:34;3.40;;;1.52;;
18857;SDS011;9558;50.178;8.370;2023-04-20T03:21:22;2.80;;;1.85;;
18857;SDS011;9558;50.178;8.370;2023-04-20T03:24:09;4.78;;;1.40;;
18857;SDS011;9558;50.178;8.370;2023-04-20T03:26:56;4.07;;;1.50;;
18857;SDS011;9558;50.178;8.370;2023-04-20T03:29:43;1.90;;;1.23;;
18857;SDS011;9558;50.178;8.370;2023-04-20T03:32:29;5.30;;;1.83;;
18857;SDS011;9558;50.178;8.370;2023-04-20T03:35:16;8.18;;;2.15;;
18857;SDS011;9558;50.178;8.370;2023-04-20T03:38:06;2.90;;;1.77;;
18857;SDS011;9558;50.178;8.370;2023-04-20T03:40:53;5.25;;;1.80;;
18857;SDS011;9558;50.178;8.370;2023-04-20T03:43:39;2.75;;;2.08;;
18857;SDS011;9558;50.178;8.370;2023-04-20T03:49:13;4.05;;;2.42;;
18857;SDS011;9558;50.178;8.370;2023-04-20T03:52:00;2.88;;;1.80;;
18857;SDS011;9558;50.178;8.370;2023-04-20T03:54:48;2.38;;;1.65;;
18857;SDS011;9558;50.178;8.370;2023-04-20T03:57:36;5.35;;;2.28;;
18857;SDS011;9558;50.178;8.370;2023-04-20T04:00:23;1.45;;;1.35;;
18857;SDS011;9558;50.178;8.370;2023-04-20T04:05:56;4.22;;;2.03;;
18857;SDS011;9558;50.178;8.370;2023-04-20T04:11:31;2.38;;;1.48;;
18857;SDS011;9558;50.178;8.370;2023-04-20T04:14:18;2.10;;;1.52;;
18857;SDS011;9558;50.178;8.370;2023-04-20T04:17:05;3.08;;;1.77;;
18857;SDS011;9558;50.178;8.370;2023-04-20T04:19:53;3.00;;;2.03;;
18857;SDS011;9558;50.178;8.370;2023-04-20T04:22:39;3.50;;;2.10;;
18857;SDS011;9558;50.178;8.370;2023-04-20T04:25:27;2.60;;;1.42;;
18857;SDS011;9558;50.178;8.370;2023-04-20T04:28:15;3.67;;;1.77;;
18857;SDS011;9558;50.178;8.370;2023-04-20T04:31:02;2.78;;;1.58;;
18857;SDS011;9558;50.178;8.370;2023-04-20T04:33:50;8.52;;;2.53;;
18857;SDS011;9558;50.178;8.370;2023-04-20T04:36:37;3.47;;;1.77;;
18857;SDS011;9558;50.178;8.370;2023-04-20T04:39:24;2.50;;;1.42;;
18857;SDS011;9558;50.178;8.370;2023-04-20T04:42:11;3.97;;;2.38;;
18857;SDS011;9558;50.178;8.370;2023-04-20T04:44:59;4.80;;;1.90;;
18857;SDS011;9558;50.178;8.370;2023-04-20T04:47:48;5.25;;;2.70;;
18857;SDS011;9558;50.178;8.370;2023-04-20T04:50:37;2.00;;;1.80;;
18857;SDS011;9558;50.178;8.370;2023-04-20T04:56:10;2.13;;;1.50;;
18857;SDS011;9558;50.178;8.370;2023-04-20T04:58:58;3.00;;;1.63;;
18857;SDS011;9558;50.178;8.370;2023-04-20T05:01:46;2.78;;;2.08;;
18857;SDS011;9558;50.178;8.370;2023-04-20T05:04:33;2.60;;;2.00;;
18857;SDS011;9558;50.178;8.370;2023-04-20T05:10:07;2.63;;;1.35;;
18857;SDS011;9558;50.178;8.370;2023-04-20T05:12:54;1.73;;;1.38;;
18857;SDS011;9558;50.178;8.370;2023-04-20T05:15:42;2.33;;;1.65;;
18857;SDS011;9558;50.178;8.370;2023-04-20T05:21:17;3.83;;;1.92;;
18857;SDS011;9558;50.178;8.370;2023-04-20T05:24:04;4.57;;;2.00;;
18857;SDS011;9558;50.178;8.370;2023-04-20T05:26:51;1.42;;;1.25;;
18857;SDS011;9558;50.178;8.370;2023-04-20T05:32:24;1.25;;;1.15;;
18857;SDS011;9558;50.178;8.370;2023-04-20T05:35:13;1.30;;;1.15;;
18857;SDS011;9558;50.178;8.370;2023-04-20T05:37:59;2.20;;;1.40;;
18857;SDS011;9558;50.178;8.370;2023-04-20T05:40:50;1.38;;;0.95;;
18857;SDS011;9558;50.178;8.370;2023-04-20T05:43:37;1.65;;;1.10;;
18857;SDS011;9558;50.178;8.370;2023-04-20T05:49:10;1.20;;;0.63;;
18857;SDS011;9558;50.178;8.370;2023-04-20T05:54:45;0.88;;;0.60;;
18857;SDS011;9558;50.178;8.370;2023-04-20T05:57:33;1.10;;;1.00;;
18857;SDS011;9558;50.178;8.370;2023-04-20T06:00:26;1.50;;;1.20;;
18857;SDS011;9558;50.178;8.370;2023-04-20T06:05:59;0.75;;;0.60;;
18857;SDS011;9558;50.178;8.370;2023-04-20T06:11:35;0.80;;;0.80;;
18857;SDS011;9558;50.178;8.370;2023-04-20T06:17:08;2.35;;;1.00;;
18857;SDS011;9558;50.178;8.370;2023-04-20T06:19:55;0.90;;;0.77;;
18857;SDS011;9558;50.178;8.370;2023-04-20T06:25:30;0.85;;;0.70;;
18857;SDS011;9558;50.178;8.370;2023-04-20T06:28:17;2.33;;;0.65;;
18857;SDS011;9558;50.178;8.370;2023-04-20T06:31:04;0.47;;;0.47;;
18857;SDS011;9558;50.178;8.370;2023-04-20T06:33:51;0.85;;;0.77;;
18857;SDS011;9558;50.178;8.370;2023-04-20T06:39:27;2.63;;;1.27;;
18857;SDS011;9558;50.178;8.370;2023-04-20T06:42:15;2.60;;;1.60;;
18857;SDS011;9558;50.178;8.370;2023-04-20T06:45:03;2.08;;;1.67;;
18857;SDS011;9558;50.178;8.370;2023-04-20T06:47:50;1.80;;;1.25;;
18857;SDS011;9558;50.178;8.370;2023-04-20T06:50:37;2.22;;;1.63;;
18857;SDS011;9558;50.178;8.370;2023-04-20T06:53:24;2.53;;;1.60;;
18857;SDS011;9558;50.178;8.370;2023-04-20T06:56:10;3.15;;;1.13;;
18857;SDS011;9558;50.178;8.370;2023-04-20T07:01:45;2.97;;;1.88;;
18857;SDS011;9558;50.178;8.370;2023-04-20T07:04:32;1.70;;;1.55;;
18857;SDS011;9558;50.178;8.370;2023-04-20T07:07:19;1.50;;;1.35;;
18857;SDS011;9558;50.178;8.370;2023-04-20T07:10:06;5.00;;;1.92;;
18857;SDS011;9558;50.178;8.370;2023-04-20T07:12:53;4.00;;;2.25;;
18857;SDS011;9558;50.178;8.370;2023-04-20T07:15:41;2.25;;;1.60;;
18857;SDS011;9558;50.178;8.370;2023-04-20T07:18:30;2.80;;;1.90;;
18857;SDS011;9558;50.178;8.370;2023-04-20T07:24:03;2.00;;;1.40;;
18857;SDS011;9558;50.178;8.370;2023-04-20T07:26:50;4.00;;;1.83;;
18857;SDS011;9558;50.178;8.370;2023-04-20T07:29:37;2.10;;;1.50;;
18857;SDS011;9558;50.178;8.370;2023-04-20T07:35:12;1.42;;;1.33;;
18857;SDS011;9558;50.178;8.370;2023-04-20T07:40:45;1.58;;;1.20;;
18857;SDS011;9558;50.178;8.370;2023-04-20T07:43:32;2.08;;;1.30;;
18857;SDS011;9558;50.178;8.370;2023-04-20T07:49:07;1.77;;;1.27;;
18857;SDS011;9558;50.178;8.370;2023-04-20T07:51:54;1.30;;;0.93;;
18857;SDS011;9558;50.178;8.370;2023-04-20T07:54:41;3.08;;;1.23;;
18857;SDS011;9558;50.178;8.370;2023-04-20T08:00:15;6.07;;;1.65;;
18857;SDS011;9558;50.178;8.370;2023-04-20T08:03:02;2.08;;;1.05;;
18857;SDS011;9558;50.178;8.370;2023-04-20T08:05:51;2.65;;;1.85;;
18857;SDS011;9558;50.178;8.370;2023-04-20T08:08:38;2.35;;;1.20;;
18857;SDS011;9558;50.178;8.370;2023-04-20T08:11:25;1.33;;;1.20;;
18857;SDS011;9558;50.178;8.370;2023-04-20T08:16:59;1.63;;;0.80;;
18857;SDS011;9558;50.178;8.370;2023-04-20T08:22:33;2.88;;;1.42;;
18857;SDS011;9558;50.178;8.370;2023-04-20T08:25:20;1.02;;;0.82;;
18857;SDS011;9558;50.178;8.370;2023-04-20T08:28:07;5.25;;;1.52;;
18857;SDS011;9558;50.178;8.370;2023-04-20T08:33:40;3.42;;;1.77;;
18857;SDS011;9558;50.178;8.370;2023-04-20T08:39:17;1.90;;;1.50;;
18857;SDS011;9558;50.178;8.370;2023-04-20T08:42:06;4.22;;;2.70;;
18857;SDS011;9558;50.178;8.370;2023-04-20T08:47:39;5.15;;;1.63;;
18857;SDS011;9558;50.178;8.370;2023-04-20T08:50:27;4.85;;;2.03;;
18857;SDS011;9558;50.178;8.370;2023-04-20T08:53:14;3.08;;;1.60;;
18857;SDS011;9558;50.178;8.370;2023-04-20T08:58:49;3.63;;;2.50;;
18857;SDS011;9558;50.178;8.370;2023-04-20T09:01:36;5.78;;;2.42;;
18857;SDS011;9558;50.178;8.370;2023-04-20T09:04:25;2.45;;;1.80;;
18857;SDS011;9558;50.178;8.370;2023-04-20T09:07:15;2.67;;;1.90;;
18857;SDS011;9558;50.178;8.370;2023-04-20T09:10:03;3.92;;;2.58;;
18857;SDS011;9558;50.178;8.370;2023-04-20T09:12:52;2.38;;;1.83;;
18857;SDS011;9558;50.178;8.370;2023-04-20T09:15:39;2.33;;;1.98;;
18857;SDS011;9558;50.178;8.370;2023-04-20T09:18:26;4.85;;;2.30;;
18857;SDS011;9558;50.178;8.370;2023-04-20T09:21:13;5.95;;;1.90;;
18857;SDS011;9558;50.178;8.370;2023-04-20T09:24:00;2.42;;;1.90;;
18857;SDS011;9558;50.178;8.370;2023-04-20T09:26:50;3.22;;;2.40;;
18857;SDS011;9558;50.178;8.370;2023-04-20T09:29:38;3.20;;;1.85;;
18857;SDS011;9558;50.178;8.370;2023-04-20T09:32:26;3.88;;;2.13;;
18857;SDS011;9558;50.178;8.370;2023-04-20T09:35:20;3.22;;;1.98;;
18857;SDS011;9558;50.178;8.370;2023-04-20T09:38:08;3.05;;;1.67;;
18857;SDS011;9558;50.178;8.370;2023-04-20T09:40:55;3.35;;;1.98;;
18857;SDS011;9558;50.178;8.370;2023-04-20T09:43:46;4.47;;;2.20;;
18857;SDS011;9558;50.178;8.370;2023-04-20T09:46:34;2.50;;;1.75;;
18857;SDS011;9558;50.178;8.370;2023-04-20T09:49:24;3.65;;;2.40;;
18857;SDS011;9558;50.178;8.370;2023-04-20T09:52:15;3.72;;;2.13;;
18857;SDS011;9558;50.178;8.370;2023-04-20T09:55:03;5.85;;;2.03;;
18857;SDS011;9558;50.178;8.370;2023-04-20T09:57:52;2.85;;;2.08;;
18857;SDS011;9558;50.178;8.370;2023-04-20T10:00:40;3.10;;;2.00;;
18857;SDS011;9558;50.178;8.370;2023-04-20T10:03:29;4.75;;;2.17;;
18857;SDS011;9558;50.178;8.370;2023-04-20T10:06:19;3.05;;;2.00;;
18857;SDS011;9558;50.178;8.370;2023-04-20T10:09:07;2.65;;;2.00;;
18857;SDS011;9558;50.178;8.370;2023-04-20T10:12:04;3.50;;;2.17;;
18857;SDS011;9558;50.178;8.370;2023-04-20T10:14:53;7.63;;;2.28;;
18857;SDS011;9558;50.178;8.370;2023-04-20T10:17:41;3.63;;;2.38;;
18857;SDS011;9558;50.178;8.370;2023-04-20T10:20:29;2.85;;;2.03;;
18857;SDS011;9558;50.178;8.370;2023-04-20T10:23:16;3.85;;;1.95;;
18857;SDS011;9558;50.178;8.370;2023-04-20T10:26:04;6.72;;;1.88;;
18857;SDS011;9558;50.178;8.370;2023-04-20T10:28:51;3.97;;;2.30;;
18857;SDS011;9558;50.178;8.370;2023-04-20T10:31:38;1.95;;;1.63;;
18857;SDS011;9558;50.178;8.370;2023-04-20T10:34:29;2.65;;;1.70;;
18857;SDS011;9558;50.178;8.370;2023-04-20T10:37:18;2.70;;;1.70;;
18857;SDS011;9558;50.178;8.370;2023-04-20T10:40:05;3.15;;;1.83;;
18857;SDS011;9558;50.178;8.370;2023-04-20T10:42:52;3.22;;;1.88;;
18857;SDS011;9558;50.178;8.370;2023-04-20T10:45:39;3.28;;;1.90;;
18857;SDS011;9558;50.178;8.370;2023-04-20T10:48:26;2.95;;;1.98;;
18857;SDS011;9558;50.178;8.370;2023-04-20T10:51:13;2.88;;;2.10;;
18857;SDS011;9558;50.178;8.370;2023-04-20T10:54:02;1.60;;;1.50;;
18857;SDS011;9558;50.178;8.370;2023-04-20T10:56:51;4.85;;;1.90;;
18857;SDS011;9558;50.178;8.370;2023-04-20T10:59:38;3.40;;;2.15;;
18857;SDS011;9558;50.178;8.370;2023-04-20T11:02:26;2.28;;;1.58;;
18857;SDS011;9558;50.178;8.370;2023-04-20T11:05:13;3.00;;;2.03;;
18857;SDS011;9558;50.178;8.370;2023-04-20T11:08:00;2.22;;;1.50;;
18857;SDS011;9558;50.178;8.370;2023-04-20T11:10:49;3.00;;;2.05;;
18857;SDS011;9558;50.178;8.370;2023-04-20T11:13:35;2.15;;;1.65;;
18857;SDS011;9558;50.178;8.370;2023-04-20T11:16:22;3.33;;;2.03;;
18857;SDS011;9558;50.178;8.370;2023-04-20T11:19:09;3.65;;;2.00;;
18857;SDS011;9558;50.178;8.370;2023-04-20T11:21:56;1.23;;;0.95;;
18857;SDS011;9558;50.178;8.370;2023-04-20T11:24:42;2.90;;;2.00;;
18857;SDS011;9558;50.178;8.370;2023-04-20T11:27:31;2.47;;;1.77;;
18857;SDS011;9558;50.178;8.370;2023-04-20T11:30:18;2.92;;;1.77;;
18857;SDS011;9558;50.178;8.370;2023-04-20T11:33:05;2.47;;;1.77;;
18857;SDS011;9558;50.178;8.370;2023-04-20T11:35:52;3.33;;;2.15;;
18857;SDS011;9558;50.178;8.370;2023-04-20T11:38:39;2.10;;;1.70;;
18857;SDS011;9558;50.178;8.370;2023-04-20T11:41:26;3.38;;;1.98;;
18857;SDS011;9558;50.178;8.370;2023-04-20T11:44:14;3.72;;;2.10;;
18857;SDS011;9558;50.178;8.370;2023-04-20T11:47:00;2.10;;;1.58;;
18857;SDS011;9558;50.178;8.370;2023-04-20T11:49:48;2.40;;;1.65;;
18857;SDS011;9558;50.178;8.370;2023-04-20T11:52:35;3.75;;;2.03;;
18857;SDS011;9558;50.178;8.370;2023-04-20T11:55:21;2.28;;;1.45;;
18857;SDS011;9558;50.178;8.370;2023-04-20T11:58:08;2.38;;;1.73;;
18857;SDS011;9558;50.178;8.370;2023-04-20T12:00:56;2.45;;;1.38;;
18857;SDS011;9558;50.178;8.370;2023-04-20T12:03:44;2.53;;;1.65;;
18857;SDS011;9558;50.178;8.370;2023-04-20T12:06:31;1.92;;;1.20;;
18857;SDS011;9558;50.178;8.370;2023-04-20T12:09:18;2.30;;;1.58;;
18857;SDS011;9558;50.178;8.370;2023-04-20T12:12:06;6.05;;;2.20;;
18857;SDS011;9558;50.178;8.370;2023-04-20T12:14:54;4.22;;;2.65;;
18857;SDS011;9558;50.178;8.370;2023-04-20T12:17:42;3.88;;;2.40;;
18857;SDS011;9558;50.178;8.370;2023-04-20T12:20:29;3.97;;;2.38;;
18857;SDS011;9558;50.178;8.370;2023-04-20T12:23:15;4.43;;;2.60;;
18857;SDS011;9558;50.178;8.370;2023-04-20T12:26:02;3.15;;;2.00;;
18857;SDS011;9558;50.178;8.370;2023-04-20T12:28:49;3.75;;;2.08;;
18857;SDS011;9558;50.178;8.370;2023-04-20T12:31:36;2.22;;;1.80;;
18857;SDS011;9558;50.178;8.370;2023-04-20T12:34:26;2.63;;;2.08;;
18857;SDS011;9558;50.178;8.370;2023-04-20T12:37:12;3.90;;;2.25;;
18857;SDS011;9558;50.178;8.370;2023-04-20T12:40:00;4.20;;;2.22;;
18857;SDS011;9558;50.178;8.370;2023-04-20T12:42:48;3.33;;;2.33;;
18857;SDS011;9558;50.178;8.370;2023-04-20T12:45:34;5.85;;;1.90;;
18857;SDS011;9558;50.178;8.370;2023-04-20T12:48:21;2.85;;;1.73;;
18857;SDS011;9558;50.178;8.370;2023-04-20T12:51:09;2.15;;;1.77;;
18857;SDS011;9558;50.178;8.370;2023-04-20T12:53:56;2.88;;;2.00;;
18857;SDS011;9558;50.178;8.370;2023-04-20T12:56:43;2.30;;;1.80;;
18857;SDS011;9558;50.178;8.370;2023-04-20T12:59:30;2.58;;;1.70;;
18857;SDS011;9558;50.178;8.370;2023-04-20T13:02:17;2.55;;;1.77;;
18857;SDS011;9558;50.178;8.370;2023-04-20T13:05:04;4.93;;;2.95;;
18857;SDS011;9558;50.178;8.370;2023-04-20T13:07:53;2.72;;;1.58;;
18857;SDS011;9558;50.178;8.370;2023-04-20T13:10:40;3.50;;;1.75;;
18857;SDS011;9558;50.178;8.370;2023-04-20T13:13:27;3.40;;;1.65;;
18857;SDS011;9558;50.178;8.370;2023-04-20T13:16:14;3.08;;;1.23;;
18857;SDS011;9558;50.178;8.370;2023-04-20T13:19:01;1.02;;;1.02;;
18857;SDS011;9558;50.178;8.370;2023-04-20T13:21:48;2.65;;;1.17;;
18857;SDS011;9558;50.178;8.370;2023-04-20T13:24:36;2.20;;;1.63;;
18857;SDS011;9558;50.178;8.370;2023-04-20T13:27:23;2.75;;;1.65;;
18857;SDS011;9558;50.178;8.370;2023-04-20T13:30:10;4.07;;;1.83;;
18857;SDS011;9558;50.178;8.370;2023-04-20T13:32:58;4.80;;;2.05;;
18857;SDS011;9558;50.178;8.370;2023-04-20T13:35:44;1.52;;;1.33;;
18857;SDS011;9558;50.178;8.370;2023-04-20T13:38:31;2.30;;;1.30;;
18857;SDS011;9558;50.178;8.370;2023-04-20T13:41:19;2.25;;;1.58;;
18857;SDS011;9558;50.178;8.370;2023-04-20T13:44:07;2.17;;;1.52;;
18857;SDS011;9558;50.178;8.370;2023-04-20T13:47:00;2.72;;;1.75;;
18857;SDS011;9558;50.178;8.370;2023-04-20T13:49:47;3.95;;;1.40;;
18857;SDS011;9558;50.178;8.370;2023-04-20T13:52:33;3.75;;;1.65;;
18857;SDS011;9558;50.178;8.370;2023-04-20T13:55:20;4.85;;;1.95;;
18857;SDS011;9558;50.178;8.370;2023-04-20T13:58:08;3.97;;;2.13;;
18857;SDS011;9558;50.178;8.370;2023-04-20T14:00:55;2.95;;;1.95;;
18857;SDS011;9558;50.178;8.370;2023-04-20T14:03:42;2.53;;;1.60;;
18857;SDS011;9558;50.178;8.370;2023-04-20T14:06:29;4.32;;;1.67;;
18857;SDS011;9558;50.178;8.370;2023-04-20T14:09:16;2.03;;;1.65;;
18857;SDS011;9558;50.178;8.370;2023-04-20T14:12:03;5.88;;;1.95;;
18857;SDS011;9558;50.178;8.370;2023-04-20T14:14:51;3.58;;;1.83;;
18857;SDS011;9558;50.178;8.370;2023-04-20T14:17:38;5.32;;;1.70;;
18857;SDS011;9558;50.178;8.370;2023-04-20T14:20:25;2.15;;;1.38;;
18857;SDS011;9558;50.178;8.370;2023-04-20T14:23:11;2.08;;;1.42;;
18857;SDS011;9558;50.178;8.370;2023-04-20T14:25:59;1.42;;;1.27;;
18857;SDS011;9558;50.178;8.370;2023-04-20T14:28:48;2.10;;;1.65;;
18857;SDS011;9558;50.178;8.370;2023-04-20T14:31:37;2.90;;;1.95;;
18857;SDS011;9558;50.178;8.370;2023-04-20T14:34:24;2.95;;;1.75;;
18857;SDS011;9558;50.178;8.370;2023-04-20T14:37:10;2.63;;;1.70;;
18857;SDS011;9558;50.178;8.370;2023-04-20T14:39:57;4.80;;;2.08;;
18857;SDS011;9558;50.178;8.370;2023-04-20T14:42:44;7.03;;;2.00;;
18857;SDS011;9558;50.178;8.370;2023-04-20T14:45:31;7.25;;;2.13;;
18857;SDS011;9558;50.178;8.370;2023-04-20T14:48:19;1.63;;;1.40;;
18857;SDS011;9558;50.178;8.370;2023-04-20T14:51:08;2.08;;;1.63;;
18857;SDS011;9558;50.178;8.370;2023-04-20T14:53:55;2.97;;;1.83;;
18857;SDS011;9558;50.178;8.370;2023-04-20T14:56:41;2.67;;;1.95;;
18857;SDS011;9558;50.178;8.370;2023-04-20T14:59:28;2.78;;;1.90;;
18857;SDS011;9558;50.178;8.370;2023-04-20T15:02:15;7.22;;;2.25;;
18857;SDS011;9558;50.178;8.370;2023-04-20T15:05:04;3.38;;;1.77;;
18857;SDS011;9558;50.178;8.370;2023-04-20T15:07:52;4.70;;;2.00;;
18857;SDS011;9558;50.178;8.370;2023-04-20T15:10:38;2.13;;;1.33;;
18857;SDS011;9558;50.178;8.370;2023-04-20T15:13:25;1.63;;;1.45;;
18857;SDS011;9558;50.178;8.370;2023-04-20T15:16:12;1.88;;;1.30;;
18857;SDS011;9558;50.178;8.370;2023-04-20T15:18:59;2.08;;;1.67;;
18857;SDS011;9558;50.178;8.370;2023-04-20T15:21:47;3.55;;;1.50;;
18857;SDS011;9558;50.178;8.370;2023-04-20T15:24:33;3.58;;;1.90;;
18857;SDS011;9558;50.178;8.370;2023-04-20T15:27:20;2.95;;;2.00;;
18857;SDS011;9558;50.178;8.370;2023-04-20T15:30:07;2.60;;;1.95;;
18857;SDS011;9558;50.178;8.370;2023-04-20T15:32:55;1.52;;;1.40;;
18857;SDS011;9558;50.178;8.370;2023-04-20T15:35:41;2.22;;;1.77;;
18857;SDS011;9558;50.178;8.370;2023-04-20T15:38:29;1.73;;;1.40;;
18857;SDS011;9558;50.178;8.370;2023-04-20T15:41:16;2.17;;;1.67;;
18857;SDS011;9558;50.178;8.370;2023-04-20T15:44:03;2.00;;;1.70;;
18857;SDS011;9558;50.178;8.370;2023-04-20T15:46:50;2.30;;;1.60;;
18857;SDS011;9558;50.178;8.370;2023-04-20T15:49:37;2.75;;;1.70;;
18857;SDS011;9558;50.178;8.370;2023-04-20T15:52:24;3.30;;;2.10;;
18857;SDS011;9558;50.178;8.370;2023-04-20T15:55:13;2.90;;;1.83;;
18857;SDS011;9558;50.178;8.370;2023-04-20T15:58:00;4.35;;;2.53;;
18857;SDS011;9558;50.178;8.370;2023-04-20T16:00:46;2.78;;;1.80;;
18857;SDS011;9558;50.178;8.370;2023-04-20T16:03:33;2.58;;;2.03;;
18857;SDS011;9558;50.178;8.370;2023-04-20T16:06:20;3.53;;;2.30;;
18857;SDS011;9558;50.178;8.370;2023-04-20T16:09:07;2.10;;;1.60;;
18857;SDS011;9558;50.178;8.370;2023-04-20T16:11:55;4.53;;;2.70;;
18857;SDS011;9558;50.178;8.370;2023-04-20T16:14:42;3.30;;;2.20;;
18857;SDS011;9558;50.178;8.370;2023-04-20T16:17:28;2.72;;;1.92;;
18857;SDS011;9558;50.178;8.370;2023-04-20T16:20:15;3.03;;;1.90;;
18857;SDS011;9558;50.178;8.370;2023-04-20T16:23:02;3.33;;;2.00;;
18857;SDS011;9558;50.178;8.370;2023-04-20T16:25:49;2.50;;;2.00;;
18857;SDS011;9558;50.178;8.370;2023-04-20T16:28:37;2.28;;;1.38;;
18857;SDS011;9558;50.178;8.370;2023-04-20T16:31:23;2.80;;;2.42;;
18857;SDS011;9558;50.178;8.370;2023-04-20T16:34:11;2.53;;;2.08;;
18857;SDS011;9558;50.178;8.370;2023-04-20T16:36:58;3.92;;;2.25;;
18857;SDS011;9558;50.178;8.370;2023-04-20T16:39:45;5.18;;;2.03;;
18857;SDS011;9558;50.178;8.370;2023-04-20T16:42:31;4.53;;;2.38;;
18857;SDS011;9558;50.178;8.370;2023-04-20T16:45:19;4.55;;;2.22;;
18857;SDS011;9558;50.178;8.370;2023-04-20T16:48:06;2.30;;;2.00;;
18857;SDS011;9558;50.178;8.370;2023-04-20T16:50:53;2.85;;;2.05;;
18857;SDS011;9558;50.178;8.370;2023-04-20T16:53:41;2.50;;;1.85;;
18857;SDS011;9558;50.178;8.370;2023-04-20T16:56:29;3.42;;;1.85;;
18857;SDS011;9558;50.178;8.370;2023-04-20T16:59:16;4.05;;;2.22;;
18857;SDS011;9558;50.178;8.370;2023-04-20T17:02:04;2.80;;;1.83;;
18857;SDS011;9558;50.178;8.370;2023-04-20T17:04:51;3.80;;;1.85;;
18857;SDS011;9558;50.178;8.370;2023-04-20T17:07:37;2.80;;;2.17;;
18857;SDS011;9558;50.178;8.370;2023-04-20T17:10:24;4.00;;;2.65;;
18857;SDS011;9558;50.178;8.370;2023-04-20T17:13:11;3.33;;;2.47;;
18857;SDS011;9558;50.178;8.370;2023-04-20T17:15:57;3.40;;;1.88;;
18857;SDS011;9558;50.178;8.370;2023-04-20T17:18:46;4.88;;;2.25;;
18857;SDS011;9558;50.178;8.370;2023-04-20T17:21:32;7.00;;;2.38;;
18857;SDS011;9558;50.178;8.370;2023-04-20T17:24:19;4.35;;;2.45;;
18857;SDS011;9558;50.178;8.370;2023-04-20T17:27:06;5.72;;;2.83;;
18857;SDS011;9558;50.178;8.370;2023-04-20T17:29:53;5.03;;;2.67;;
18857;SDS011;9558;50.178;8.370;2023-04-20T17:32:40;6.65;;;3.08;;
18857;SDS011;9558;50.178;8.370;2023-04-20T17:35:28;3.95;;;3.17;;
18857;SDS011;9558;50.178;8.370;2023-04-20T17:38:15;5.32;;;2.80;;
18857;SDS011;9558;50.178;8.370;2023-04-20T17:41:02;4.18;;;2.67;;
18857;SDS011;9558;50.178;8.370;2023-04-20T17:43:49;5.55;;;3.35;;
18857;SDS011;9558;50.178;8.370;2023-04-20T17:46:36;4.50;;;3.08;;
18857;SDS011;9558;50.178;8.370;2023-04-20T17:49:23;4.53;;;2.67;;
18857;SDS011;9558;50.178;8.370;2023-04-20T17:52:11;7.50;;;4.05;;
18857;SDS011;9558;50.178;8.370;2023-04-20T17:55:02;3.75;;;2.55;;
18857;SDS011;9558;50.178;8.370;2023-04-20T17:57:49;5.63;;;3.65;;
18857;SDS011;9558;50.178;8.370;2023-04-20T18:00:36;4.70;;;3.10;;
18857;SDS011;9558;50.178;8.370;2023-04-20T18:03:22;6.78;;;3.70;;
18857;SDS011;9558;50.178;8.370;2023-04-20T18:06:09;6.90;;;3.67;;
18857;SDS011;9558;50.178;8.370;2023-04-20T18:08:57;6.20;;;3.42;;
18857;SDS011;9558;50.178;8.370;2023-04-20T18:11:44;4.93;;;3.20;;
18857;SDS011;9558;50.178;8.370;2023-04-20T18:14:31;6.53;;;3.58;;
18857;SDS011;9558;50.178;8.370;2023-04-20T18:17:18;12.05;;;4.28;;
18857;SDS011;9558;50.178;8.370;2023-04-20T18:20:05;6.30;;;4.30;;
18857;SDS011;9558;50.178;8.370;2023-04-20T18:22:53;8.60;;;4.38;;
18857;SDS011;9558;50.178;8.370;2023-04-20T18:25:42;7.85;;;4.47;;
18857;SDS011;9558;50.178;8.370;2023-04-20T18:28:30;5.30;;;3.42;;
18857;SDS011;9558;50.178;8.370;2023-04-20T18:31:17;6.15;;;3.67;;
18857;SDS011;9558;50.178;8.370;2023-04-20T18:34:05;6.75;;;4.57;;
18857;SDS011;9558;50.178;8.370;2023-04-20T18:36:53;5.30;;;4.35;;
18857;SDS011;9558;50.178;8.370;2023-04-20T18:42:27;7.82;;;3.70;;